createdAt,value
2019-05-21T00:01:09.240Z,15.53
2019-05-21T00:03:42.881Z,7.60
2019-05-21T00:06:21.904Z,6.23
2019-05-21T00:08:50.164Z,5.43
2019-05-21T00:11:17.167Z,5.67
2019-05-21T00:13:53.393Z,5.47
2019-05-21T00:16:20.363Z,5.53
2019-05-21T00:18:47.378Z,5.07
2019-05-21T00:21:17.164Z,4.97
2019-05-21T00:23:43.990Z,5.40
2019-05-21T00:26:10.759Z,5.50
2019-05-21T00:28:40.127Z,5.93
2019-05-21T00:31:44.318Z,6.60
2019-05-21T00:34:50.041Z,5.70
2019-05-21T00:37:53.926Z,5.10
2019-05-21T00:40:59.535Z,6.13
2019-05-21T00:43:54.567Z,6.77
2019-05-21T00:46:21.395Z,5.40
2019-05-21T00:48:48.096Z,5.03
2019-05-21T00:51:16.757Z,5.53
2019-05-21T00:53:43.523Z,5.33
2019-05-21T00:56:10.188Z,6.07
2019-05-21T00:58:36.933Z,11.70
2019-05-21T01:01:03.671Z,8.47
2019-05-21T01:03:30.355Z,15.40
2019-05-21T01:05:57.280Z,11.87
2019-05-21T01:08:23.975Z,8.63
2019-05-21T01:10:50.776Z,8.03
2019-05-21T01:13:17.477Z,13.73
2019-05-21T01:15:44.133Z,7.83
2019-05-21T01:18:10.927Z,12.30
2019-05-21T01:20:37.610Z,16.70
2019-05-21T01:23:04.542Z,28.03
2019-05-21T01:25:31.210Z,9.00
2019-05-21T01:27:57.985Z,21.97
2019-05-21T01:30:24.777Z,8.63
2019-05-21T01:32:51.659Z,11.67
2019-05-21T01:35:18.463Z,9.00
2019-05-21T01:37:45.127Z,8.20
2019-05-21T01:40:12.037Z,9.10
2019-05-21T01:42:38.905Z,10.27
2019-05-21T01:45:06.095Z,8.70
2019-05-21T01:47:32.774Z,9.60
2019-05-21T01:49:59.568Z,9.70
2019-05-21T01:52:26.223Z,8.93
2019-05-21T01:54:52.920Z,8.60
2019-05-21T01:57:19.584Z,10.17
2019-05-21T01:59:46.284Z,9.60
2019-05-21T02:02:12.979Z,10.13
2019-05-21T02:04:39.660Z,10.80
2019-05-21T02:07:06.343Z,9.90
2019-05-21T02:09:35.097Z,10.47
2019-05-21T02:12:01.809Z,10.20
2019-05-21T02:14:28.470Z,10.60
2019-05-21T02:16:55.282Z,10.47
2019-05-21T02:19:21.940Z,11.07
2019-05-21T02:21:48.618Z,12.57
2019-05-21T02:24:15.292Z,24.13
2019-05-21T02:26:41.967Z,11.73
2019-05-21T02:29:08.630Z,11.17
2019-05-21T02:31:35.318Z,15.80
2019-05-21T02:34:03.029Z,19.77
2019-05-21T02:36:29.845Z,22.53
2019-05-21T02:38:56.540Z,26.60
2019-05-21T02:41:23.313Z,19.57
2019-05-21T02:43:50.004Z,17.57
2019-05-21T02:46:17.001Z,14.43
2019-05-21T02:48:43.681Z,15.67
2019-05-21T02:51:10.459Z,13.90
2019-05-21T02:53:37.283Z,13.67
2019-05-21T02:56:04.178Z,13.07
2019-05-21T02:58:30.814Z,16.10
2019-05-21T03:01:07.641Z,14.87
2019-05-21T03:03:34.721Z,16.60
2019-05-21T03:06:13.002Z,16.20
2019-05-21T03:08:30.113Z,15.17
2019-05-21T03:10:56.903Z,16.30
2019-05-21T03:13:23.545Z,17.17
2019-05-21T03:15:55.614Z,15.73
2019-05-21T03:18:39.846Z,15.33
2019-05-21T03:21:09.150Z,17.70
2019-05-21T03:23:37.018Z,17.00
2019-05-21T03:26:03.890Z,15.63
2019-05-21T03:28:30.676Z,17.87
2019-05-21T03:30:57.532Z,18.50
2019-05-21T03:33:24.372Z,17.77
2019-05-21T03:35:51.265Z,18.13
2019-05-21T03:38:18.046Z,19.77
2019-05-21T03:40:45.004Z,18.20
2019-05-21T03:43:11.779Z,20.77
2019-05-21T03:45:38.558Z,18.63
2019-05-21T03:48:05.373Z,18.37
2019-05-21T03:50:32.276Z,18.60
2019-05-21T03:52:58.960Z,26.30
2019-05-21T03:55:26.082Z,22.53
2019-05-21T03:57:52.818Z,19.10
2019-05-21T04:00:19.702Z,18.73
2019-05-21T04:02:46.488Z,18.37
2019-05-21T04:05:21.624Z,19.43
2019-05-21T04:07:48.282Z,20.20
2019-05-21T04:10:15.161Z,19.47
2019-05-21T04:12:42.057Z,19.87
2019-05-21T04:15:11.390Z,20.90
2019-05-21T04:17:45.835Z,19.70
2019-05-21T04:20:12.595Z,20.43
2019-05-21T04:22:51.557Z,20.23
2019-05-21T04:25:18.917Z,18.97
2019-05-21T04:27:45.628Z,19.83
2019-05-21T04:30:13.127Z,19.77
2019-05-21T04:32:39.894Z,20.47
2019-05-21T04:35:06.675Z,20.10
2019-05-21T04:37:33.376Z,20.07
2019-05-21T04:40:00.044Z,21.40
2019-05-21T04:42:26.724Z,21.50
2019-05-21T04:44:53.420Z,21.00
2019-05-21T04:47:20.099Z,21.27
2019-05-21T04:49:46.765Z,20.97
2019-05-21T04:52:14.609Z,22.10
2019-05-21T04:54:41.398Z,21.27
2019-05-21T04:57:08.117Z,22.37
2019-05-21T04:59:35.190Z,20.50
2019-05-21T05:02:01.864Z,21.63
2019-05-21T05:04:29.816Z,20.30
2019-05-21T05:06:56.531Z,22.20
2019-05-21T05:09:23.325Z,22.80
2019-05-21T05:11:50.017Z,22.40
2019-05-21T05:14:16.774Z,23.20
2019-05-21T05:16:43.550Z,20.93
2019-05-21T05:19:10.340Z,23.43
2019-05-21T05:21:37.054Z,23.90
2019-05-21T05:24:03.935Z,22.30
2019-05-21T05:26:30.832Z,22.00
2019-05-21T05:28:57.553Z,22.13
2019-05-21T05:31:24.437Z,22.07
2019-05-21T05:33:51.137Z,23.20
2019-05-21T05:36:17.861Z,20.90
2019-05-21T05:38:44.591Z,21.40
2019-05-21T05:41:11.288Z,22.67
2019-05-21T05:43:37.953Z,21.60
2019-05-21T05:46:04.824Z,28.50
2019-05-21T05:48:33.443Z,28.13
2019-05-21T05:51:02.320Z,25.27
2019-05-21T05:53:29.026Z,22.90
2019-05-21T05:55:55.751Z,23.33
2019-05-21T05:58:22.431Z,22.10
2019-05-21T06:00:49.136Z,22.80
2019-05-21T06:03:15.902Z,23.83
2019-05-21T06:05:42.716Z,22.40
2019-05-21T06:08:09.494Z,23.50
2019-05-21T06:10:39.815Z,23.47
2019-05-21T06:13:04.962Z,23.03
2019-05-21T06:15:31.658Z,24.23
2019-05-21T06:17:58.347Z,23.47
2019-05-21T06:20:25.598Z,20.73
2019-05-21T06:22:52.310Z,24.60
2019-05-21T06:25:19.300Z,27.77
2019-05-21T06:27:46.109Z,25.27
2019-05-21T06:30:13.273Z,21.97
2019-05-21T06:32:40.070Z,23.93
2019-05-21T06:35:06.883Z,40.03
2019-05-21T06:37:34.018Z,26.67
2019-05-21T06:40:00.843Z,43.40
2019-05-21T06:42:27.526Z,27.30
2019-05-21T06:44:54.439Z,26.73
2019-05-21T06:47:21.207Z,26.77
2019-05-21T06:49:48.989Z,22.83
2019-05-21T06:52:15.768Z,23.80
2019-05-21T06:54:42.554Z,24.93
2019-05-21T06:57:09.289Z,25.77
2019-05-21T06:59:36.047Z,25.93
2019-05-21T07:02:02.861Z,30.17
2019-05-21T07:04:29.530Z,31.97
2019-05-21T07:06:56.319Z,27.30
2019-05-21T07:09:23.119Z,25.00
2019-05-21T07:11:49.781Z,26.73
2019-05-21T07:14:16.460Z,26.63
2019-05-21T07:16:43.412Z,24.50
2019-05-21T07:19:10.292Z,22.90
2019-05-21T07:21:37.057Z,25.90
2019-05-21T07:24:03.852Z,23.63
2019-05-21T07:26:30.654Z,26.70
2019-05-21T07:28:57.639Z,24.57
2019-05-21T07:31:24.602Z,27.33
2019-05-21T07:33:51.274Z,25.23
2019-05-21T07:36:18.072Z,25.60
2019-05-21T07:38:53.473Z,36.07
2019-05-21T07:41:13.530Z,23.30
2019-05-21T07:43:40.268Z,24.87
2019-05-21T07:46:07.302Z,24.93
2019-05-21T07:48:34.075Z,24.13
2019-05-21T07:51:01.650Z,25.70
2019-05-21T07:53:28.307Z,25.30
2019-05-21T07:55:55.093Z,24.53
2019-05-21T07:58:21.939Z,29.73
2019-05-21T08:00:48.830Z,24.30
2019-05-21T08:03:15.609Z,24.37
2019-05-21T08:05:42.341Z,27.20
2019-05-21T08:08:09.000Z,23.73
2019-05-21T08:10:36.778Z,25.43
2019-05-21T08:13:03.727Z,23.97
2019-05-21T08:15:30.573Z,24.57
2019-05-21T08:17:57.666Z,23.20
2019-05-21T08:20:24.953Z,25.80
2019-05-21T08:22:51.741Z,25.43
2019-05-21T08:25:18.408Z,24.30
2019-05-21T08:27:45.129Z,23.20
2019-05-21T08:30:12.138Z,22.10
2019-05-21T08:32:38.916Z,23.10
2019-05-21T08:35:05.732Z,22.20
2019-05-21T08:37:32.537Z,23.23
2019-05-21T08:39:59.320Z,21.20
2019-05-21T08:42:26.094Z,24.10
2019-05-21T08:44:52.871Z,24.37
2019-05-21T08:47:19.655Z,18.33
2019-05-21T08:49:46.489Z,19.83
2019-05-21T08:52:13.271Z,21.97
2019-05-21T08:54:55.918Z,20.07
2019-05-21T08:57:22.681Z,18.80
2019-05-21T08:59:49.568Z,19.23
2019-05-21T09:02:17.976Z,20.33
2019-05-21T09:04:46.703Z,19.27
2019-05-21T09:07:13.926Z,17.73
2019-05-21T09:09:49.882Z,19.47
2019-05-21T09:12:09.687Z,19.40
2019-05-21T09:14:36.700Z,17.37
2019-05-21T09:17:03.515Z,19.37
2019-05-21T09:19:30.210Z,19.00
2019-05-21T09:21:57.009Z,18.47
2019-05-21T09:24:23.763Z,19.27
2019-05-21T09:26:50.656Z,17.83
2019-05-21T09:29:17.427Z,22.17
2019-05-21T09:31:44.320Z,21.47
2019-05-21T09:34:11.471Z,17.33
2019-05-21T09:36:38.338Z,19.57
2019-05-21T09:39:05.560Z,17.50
2019-05-21T09:41:34.453Z,17.80
2019-05-21T09:44:04.428Z,19.07
2019-05-21T09:46:31.658Z,19.60
2019-05-21T09:48:58.721Z,19.67
2019-05-21T09:51:25.516Z,19.83
2019-05-21T09:53:52.213Z,24.23
2019-05-21T09:56:31.240Z,20.03
2019-05-21T09:59:00.394Z,22.00
2019-05-21T10:01:47.709Z,20.17
2019-05-21T10:04:12.475Z,19.90
2019-05-21T10:06:39.354Z,23.63
2019-05-21T10:09:09.021Z,21.43
2019-05-21T10:11:35.893Z,21.33
2019-05-21T10:14:03.889Z,25.43
2019-05-21T10:16:30.570Z,21.40
2019-05-21T10:18:57.414Z,21.23
2019-05-21T10:21:24.237Z,23.10
2019-05-21T10:23:51.301Z,22.03
2019-05-21T10:26:18.158Z,19.23
2019-05-21T10:28:44.970Z,21.40
2019-05-21T10:31:11.887Z,22.57
2019-05-21T10:33:38.802Z,23.90
2019-05-21T10:36:05.581Z,19.00
2019-05-21T10:38:32.458Z,19.70
2019-05-21T10:40:59.400Z,21.57
2019-05-21T10:43:26.323Z,22.23
2019-05-21T10:45:53.014Z,21.90
2019-05-21T10:48:20.426Z,23.30
2019-05-21T10:50:47.114Z,19.73
2019-05-21T10:53:14.129Z,20.40
2019-05-21T10:55:40.902Z,21.90
2019-05-21T10:58:07.598Z,21.10
2019-05-21T11:00:34.392Z,20.77
2019-05-21T11:03:08.980Z,21.53
2019-05-21T11:05:37.862Z,20.07
2019-05-21T11:08:22.795Z,21.90
2019-05-21T11:10:34.422Z,24.60
2019-05-21T11:13:01.367Z,26.47
2019-05-21T11:15:28.220Z,20.50
2019-05-21T11:18:09.673Z,24.97
2019-05-21T11:20:23.743Z,21.70
2019-05-21T11:22:50.535Z,24.63
2019-05-21T11:25:17.300Z,22.53
2019-05-21T11:27:44.010Z,21.00
2019-05-21T11:30:10.902Z,22.50
2019-05-21T11:32:37.795Z,24.80
2019-05-21T11:35:05.598Z,34.13
2019-05-21T11:37:32.487Z,31.23
2019-05-21T11:39:59.250Z,22.20
2019-05-21T11:42:26.096Z,22.13
2019-05-21T11:44:52.869Z,26.10
2019-05-21T11:47:19.565Z,22.33
2019-05-21T11:49:46.371Z,26.43
2019-05-21T11:52:13.151Z,27.73
2019-05-21T11:54:40.216Z,34.83
2019-05-21T11:57:06.902Z,22.30
2019-05-21T11:59:33.681Z,26.00
2019-05-21T12:02:00.383Z,25.77
2019-05-21T12:04:27.867Z,20.90
2019-05-21T12:06:54.670Z,19.43
2019-05-21T12:09:21.444Z,25.47
2019-05-21T12:11:48.244Z,23.93
2019-05-21T12:14:14.905Z,18.83
2019-05-21T12:16:42.186Z,21.50
2019-05-21T12:19:09.191Z,20.97
2019-05-21T12:21:35.979Z,23.53
2019-05-21T12:24:02.895Z,25.70
2019-05-21T12:26:29.704Z,19.90
2019-05-21T12:28:56.701Z,30.20
2019-05-21T12:31:23.835Z,19.37
2019-05-21T12:33:50.943Z,20.67
2019-05-21T12:36:17.923Z,30.70
2019-05-21T12:38:44.713Z,19.50
2019-05-21T12:41:13.746Z,22.00
2019-05-21T12:43:40.485Z,24.43
2019-05-21T12:46:07.186Z,72.53
2019-05-21T12:48:34.011Z,22.10
2019-05-21T12:51:00.768Z,21.30
2019-05-21T12:53:27.662Z,21.53
2019-05-21T12:55:54.494Z,20.43
2019-05-21T12:58:21.652Z,19.50
2019-05-21T13:00:48.676Z,20.03
2019-05-21T13:03:15.367Z,22.77
2019-05-21T13:05:42.135Z,20.20
2019-05-21T13:08:09.239Z,20.73
2019-05-21T13:10:38.349Z,38.43
2019-05-21T13:13:07.016Z,42.57
2019-05-21T13:15:33.994Z,20.03
2019-05-21T13:18:00.670Z,21.30
2019-05-21T13:20:28.544Z,22.97
2019-05-21T13:22:56.050Z,20.47
2019-05-21T13:25:23.024Z,20.43
2019-05-21T13:27:49.681Z,21.70
2019-05-21T13:30:17.123Z,20.60
2019-05-21T13:32:44.074Z,22.23
2019-05-21T13:35:10.982Z,22.83
2019-05-21T13:37:37.674Z,21.20
2019-05-21T13:40:05.819Z,21.27
2019-05-21T13:42:33.152Z,21.53
2019-05-21T13:44:59.970Z,22.53
2019-05-21T13:47:26.786Z,21.10
2019-05-21T13:49:53.506Z,23.37
2019-05-21T13:52:21.402Z,21.87
2019-05-21T13:54:48.139Z,21.87
2019-05-21T13:57:14.938Z,22.13
2019-05-21T13:59:41.796Z,21.47
2019-05-21T14:02:12.288Z,21.67
2019-05-21T14:04:39.103Z,22.33
2019-05-21T14:07:05.924Z,23.70
2019-05-21T14:09:32.622Z,22.03
2019-05-21T14:11:59.589Z,23.30
2019-05-21T14:14:28.347Z,26.63
2019-05-21T14:16:55.443Z,27.23
2019-05-21T14:19:22.347Z,26.30
2019-05-21T14:21:49.139Z,29.67
2019-05-21T14:24:15.806Z,51.20
2019-05-21T14:26:43.091Z,26.40
2019-05-21T14:29:10.208Z,36.63
2019-05-21T14:31:37.063Z,25.27
2019-05-21T14:34:03.841Z,25.63
2019-05-21T14:36:30.650Z,26.10
2019-05-21T14:38:57.425Z,28.60
2019-05-21T14:41:24.230Z,25.43
2019-05-21T14:43:51.041Z,28.50
2019-05-21T14:46:17.890Z,28.50
2019-05-21T14:48:44.699Z,27.60
2019-05-21T14:51:13.569Z,30.97
2019-05-21T14:53:40.259Z,31.80
2019-05-21T14:56:06.934Z,29.83
2019-05-21T14:58:33.609Z,29.93
2019-05-21T15:01:00.402Z,31.03
2019-05-21T15:03:29.487Z,32.60
2019-05-21T15:05:55.854Z,31.97
2019-05-21T15:08:22.637Z,33.43
2019-05-21T15:10:50.426Z,32.80
2019-05-21T15:13:17.239Z,30.70
2019-05-21T15:15:43.913Z,33.07
2019-05-21T15:18:16.286Z,32.97
2019-05-21T15:20:52.774Z,52.53
2019-05-21T15:23:19.447Z,48.37
2019-05-21T15:25:46.225Z,33.13
2019-05-21T15:28:13.324Z,29.23
2019-05-21T15:30:41.301Z,32.70
2019-05-21T15:33:08.444Z,35.40
2019-05-21T15:35:35.134Z,31.87
2019-05-21T15:38:01.929Z,30.17
2019-05-21T15:40:28.812Z,30.50
2019-05-21T15:42:55.581Z,31.73
2019-05-21T15:45:22.667Z,25.87
2019-05-21T15:47:49.332Z,25.90
2019-05-21T15:50:17.835Z,30.23
2019-05-21T15:52:45.166Z,29.20
2019-05-21T15:55:12.029Z,20.97
2019-05-21T15:57:38.835Z,23.77
2019-05-21T16:00:05.889Z,28.37
2019-05-21T16:02:33.297Z,29.73
2019-05-21T16:05:01.894Z,25.03
2019-05-21T16:07:29.187Z,27.90
2019-05-21T16:09:56.199Z,22.67
2019-05-21T16:12:22.887Z,22.87
2019-05-21T16:14:49.670Z,24.07
2019-05-21T16:17:17.763Z,23.73
2019-05-21T16:19:44.564Z,23.73
2019-05-21T16:22:11.359Z,25.70
2019-05-21T16:24:39.322Z,97.60
2019-05-21T16:27:06.398Z,22.57
2019-05-21T16:29:33.299Z,21.70
2019-05-21T16:32:00.205Z,38.67
2019-05-21T16:34:31.602Z,20.80
2019-05-21T16:36:55.865Z,20.47
2019-05-21T16:39:24.360Z,28.20
2019-05-21T16:41:51.158Z,21.07
2019-05-21T16:44:18.235Z,22.63
2019-05-21T16:46:45.579Z,27.90
2019-05-21T16:49:15.337Z,40.20
2019-05-21T16:51:43.518Z,38.77
2019-05-21T16:54:15.310Z,31.00
2019-05-21T16:56:42.158Z,30.93
2019-05-21T16:59:09.320Z,33.47
2019-05-21T17:01:35.998Z,29.03
2019-05-21T17:04:03.039Z,28.30
2019-05-21T17:06:30.390Z,26.87
2019-05-21T17:08:57.066Z,24.67
2019-05-21T17:11:23.861Z,25.03
2019-05-21T17:13:50.534Z,31.70
2019-05-21T17:16:17.358Z,30.77
2019-05-21T17:18:44.149Z,27.53
2019-05-21T17:21:10.930Z,30.10
2019-05-21T17:23:38.049Z,25.17
2019-05-21T17:26:04.868Z,20.70
2019-05-21T17:28:31.680Z,25.73
2019-05-21T17:30:58.939Z,29.70
2019-05-21T17:33:25.597Z,28.80
2019-05-21T17:35:52.410Z,25.60
2019-05-21T17:38:19.602Z,25.20
2019-05-21T17:40:46.294Z,27.57
2019-05-21T17:43:14.148Z,26.80
2019-05-21T17:45:40.861Z,23.37
2019-05-21T17:48:07.619Z,21.47
2019-05-21T17:50:34.596Z,26.50
2019-05-21T17:53:01.632Z,27.53
2019-05-21T17:55:28.935Z,20.40
2019-05-21T17:57:55.738Z,23.20
2019-05-21T18:00:32.820Z,22.47
2019-05-21T18:02:59.773Z,23.57
2019-05-21T18:05:28.247Z,20.27
2019-05-21T18:07:55.466Z,21.93
2019-05-21T18:10:22.636Z,21.20
2019-05-21T18:12:50.708Z,43.63
2019-05-21T18:15:18.059Z,27.53
2019-05-21T18:17:45.927Z,34.20
2019-05-21T18:20:14.936Z,20.77
2019-05-21T18:22:45.228Z,30.47
2019-05-21T18:25:12.310Z,24.80
2019-05-21T18:27:39.294Z,25.10
2019-05-21T18:30:08.693Z,33.90
2019-05-21T18:32:37.481Z,18.50
2019-05-21T18:35:04.522Z,21.43
2019-05-21T18:37:33.325Z,27.97
2019-05-21T18:40:00.453Z,13.17
2019-05-21T18:42:27.125Z,30.30
2019-05-21T18:44:53.905Z,21.03
2019-05-21T18:47:21.643Z,25.90
2019-05-21T18:49:48.771Z,19.53
2019-05-21T18:52:15.599Z,16.97
2019-05-21T18:54:42.321Z,18.80
2019-05-21T18:57:09.463Z,33.83
2019-05-21T18:59:36.749Z,28.83
2019-05-21T19:02:04.651Z,22.67
2019-05-21T19:04:31.542Z,22.67
2019-05-21T19:06:58.816Z,24.83
2019-05-21T19:09:25.792Z,19.87
2019-05-21T19:11:52.633Z,34.63
2019-05-21T19:14:19.290Z,26.73
2019-05-21T19:16:46.073Z,21.20
2019-05-21T19:19:12.745Z,24.70
2019-05-21T19:21:39.550Z,25.50
2019-05-21T19:24:06.247Z,17.57
2019-05-21T19:26:33.027Z,22.10
2019-05-21T19:29:01.089Z,27.50
2019-05-21T19:31:27.858Z,24.63
2019-05-21T19:33:54.537Z,21.43
2019-05-21T19:36:21.241Z,21.50
2019-05-21T19:38:47.903Z,24.93
2019-05-21T19:41:32.835Z,18.20
2019-05-21T19:43:55.830Z,28.80
2019-05-21T19:46:22.812Z,26.07
2019-05-21T19:48:49.536Z,32.43
2019-05-21T19:51:16.300Z,20.30
2019-05-21T19:53:44.447Z,20.13
2019-05-21T19:56:11.197Z,31.67
2019-05-21T19:58:38.001Z,29.07
2019-05-21T20:01:05.603Z,25.90
2019-05-21T20:03:32.379Z,19.47
2019-05-21T20:06:00.184Z,20.00
2019-05-21T20:08:27.978Z,15.77
2019-05-21T20:10:54.768Z,14.37
2019-05-21T20:13:32.245Z,16.37
2019-05-21T20:15:50.823Z,19.23
2019-05-21T20:18:17.836Z,21.37
2019-05-21T20:20:45.284Z,19.80
2019-05-21T20:23:12.807Z,19.13
2019-05-21T20:25:55.522Z,17.00
2019-05-21T20:28:10.817Z,19.33
2019-05-21T20:30:37.953Z,18.03
2019-05-21T20:33:06.791Z,20.37
2019-05-21T20:35:33.699Z,17.00
2019-05-21T20:38:00.773Z,16.20
2019-05-21T20:40:27.871Z,19.00
2019-05-21T20:42:54.906Z,22.47
2019-05-21T20:45:22.441Z,27.77
2019-05-21T20:47:50.666Z,30.00
2019-05-21T20:50:18.999Z,18.63
2019-05-21T20:52:45.997Z,23.20
2019-05-21T20:55:14.715Z,16.47
2019-05-21T20:57:41.499Z,16.93
2019-05-21T21:00:10.211Z,40.67
2019-05-21T21:02:39.911Z,27.40
2019-05-21T21:05:08.276Z,20.00
2019-05-21T21:07:36.855Z,19.03
2019-05-21T21:10:04.323Z,16.60
2019-05-21T21:12:32.547Z,16.80
2019-05-21T21:15:00.047Z,19.90
2019-05-21T21:17:27.093Z,17.00
2019-05-21T21:19:55.812Z,17.50
2019-05-21T21:22:22.485Z,18.83
2019-05-21T21:24:49.489Z,18.13
2019-05-21T21:27:16.554Z,17.97
2019-05-21T21:29:43.775Z,12.70
2019-05-21T21:32:10.745Z,15.37
2019-05-21T21:34:37.992Z,13.97
2019-05-21T21:37:04.891Z,13.23
2019-05-21T21:39:31.856Z,9.53
2019-05-21T21:41:58.648Z,16.77
2019-05-21T21:44:34.096Z,14.00
2019-05-21T21:46:55.150Z,11.03
2019-05-21T21:49:24.723Z,10.87
2019-05-21T21:51:51.679Z,11.57
2019-05-21T21:54:21.209Z,19.00
2019-05-21T21:56:47.919Z,13.90
2019-05-21T21:59:15.026Z,6.30
2019-05-21T22:01:51.943Z,11.93
2019-05-21T22:04:22.368Z,10.67
2019-05-21T22:06:49.674Z,9.60
2019-05-21T22:09:20.786Z,12.70
2019-05-21T22:11:48.562Z,16.33
2019-05-21T22:14:16.475Z,12.63
2019-05-21T22:16:43.573Z,13.43
2019-05-21T22:19:11.102Z,12.50
2019-05-21T22:21:38.081Z,14.10
2019-05-21T22:24:04.777Z,9.83
2019-05-21T22:26:31.669Z,12.77
2019-05-21T22:28:58.518Z,11.37
2019-05-21T22:31:25.179Z,13.33
2019-05-21T22:33:51.885Z,12.53
2019-05-21T22:36:18.970Z,12.43
2019-05-21T22:38:45.705Z,9.20
2019-05-21T22:41:13.029Z,12.90
2019-05-21T22:43:40.212Z,12.77
2019-05-21T22:46:06.990Z,11.80
2019-05-21T22:48:33.773Z,8.97
2019-05-21T22:51:00.510Z,9.30
2019-05-21T22:53:27.234Z,8.40
2019-05-21T22:55:54.179Z,12.40
2019-05-21T22:58:21.130Z,14.87
2019-05-21T23:00:51.663Z,12.40
2019-05-21T23:03:18.534Z,8.73
2019-05-21T23:05:45.330Z,14.30
2019-05-21T23:08:12.428Z,15.07
2019-05-21T23:10:39.348Z,15.33
2019-05-21T23:13:07.123Z,17.27
2019-05-21T23:15:33.981Z,14.40
2019-05-21T23:18:05.750Z,16.90
2019-05-21T23:20:35.450Z,15.60
2019-05-21T23:23:03.089Z,18.50
2019-05-21T23:25:30.520Z,14.63
2019-05-21T23:27:58.310Z,19.10
2019-05-21T23:30:26.389Z,15.87
2019-05-21T23:32:53.182Z,13.60
2019-05-21T23:35:21.371Z,12.17
2019-05-21T23:37:48.290Z,15.47
2019-05-21T23:40:15.083Z,15.73
2019-05-21T23:42:42.309Z,12.63
2019-05-21T23:45:10.600Z,15.67
2019-05-21T23:47:37.781Z,8.90
2019-05-21T23:50:04.913Z,15.83
2019-05-21T23:52:31.997Z,11.70
2019-05-21T23:54:59.246Z,16.30
2019-05-21T23:57:27.350Z,17.23
2019-05-21T23:59:55.033Z,17.17
